sensor_id;sensor_type;location;lat;lon;timestamp;temperature;humidity
22321;DHT22;11328;53.928;18.522;2023-07-31T00:00:21;19.40;99.90
22321;DHT22;11328;53.928;18.522;2023-07-31T00:02:48;19.50;99.90
22321;DHT22;11328;53.928;18.522;2023-07-31T00:05:15;19.50;99.90
22321;DHT22;11328;53.928;18.522;2023-07-31T00:07:42;19.50;99.90
22321;DHT22;11328;53.928;18.522;2023-07-31T00:10:09;19.40;99.90
22321;DHT22;11328;53.928;18.522;2023-07-31T00:12:41;19.40;99.90
22321;DHT22;11328;53.928;18.522;2023-07-31T00:15:10;19.30;99.90
22321;DHT22;11328;53.928;18.522;2023-07-31T00:17:37;19.20;99.90
22321;DHT22;11328;53.928;18.522;2023-07-31T00:20:04;19.10;99.90
22321;DHT22;11328;53.928;18.522;2023-07-31T00:22:31;19.10;99.90
22321;DHT22;11328;53.928;18.522;2023-07-31T00:24:58;19.00;99.90
22321;DHT22;11328;53.928;18.522;2023-07-31T00:27:26;19.00;99.90
22321;DHT22;11328;53.928;18.522;2023-07-31T00:29:53;19.10;99.90
22321;DHT22;11328;53.928;18.522;2023-07-31T00:32:20;19.00;99.90
22321;DHT22;11328;53.928;18.522;2023-07-31T00:34:47;19.00;99.90
22321;DHT22;11328;53.928;18.522;2023-07-31T00:37:14;19.00;99.90
22321;DHT22;11328;53.928;18.522;2023-07-31T00:39:42;19.00;99.90
22321;DHT22;11328;53.928;18.522;2023-07-31T00:42:08;19.00;99.90
22321;DHT22;11328;53.928;18.522;2023-07-31T00:44:35;19.00;99.90
22321;DHT22;11328;53.928;18.522;2023-07-31T00:47:02;19.00;99.90
22321;DHT22;11328;53.928;18.522;2023-07-31T00:49:30;19.00;99.90
22321;DHT22;11328;53.928;18.522;2023-07-31T00:51:57;19.10;99.90
22321;DHT22;11328;53.928;18.522;2023-07-31T00:54:24;19.00;99.90
22321;DHT22;11328;53.928;18.522;2023-07-31T00:56:53;18.90;99.90
22321;DHT22;11328;53.928;18.522;2023-07-31T00:59:21;18.90;99.90
22321;DHT22;11328;53.928;18.522;2023-07-31T01:01:48;18.90;99.90
22321;DHT22;11328;53.928;18.522;2023-07-31T01:04:17;18.90;99.90
22321;DHT22;11328;53.928;18.522;2023-07-31T01:06:52;18.80;99.90
22321;DHT22;11328;53.928;18.522;2023-07-31T01:12:20;18.80;99.90
22321;DHT22;11328;53.928;18.522;2023-07-31T01:15:09;18.80;99.90
22321;DHT22;11328;53.928;18.522;2023-07-31T01:17:38;18.70;99.90
22321;DHT22;11328;53.928;18.522;2023-07-31T01:20:21;18.60;99.90
22321;DHT22;11328;53.928;18.522;2023-07-31T01:26:21;18.50;99.90
22321;DHT22;11328;53.928;18.522;2023-07-31T01:28:56;18.40;99.90
22321;DHT22;11328;53.928;18.522;2023-07-31T01:31:35;18.40;99.90
22321;DHT22;11328;53.928;18.522;2023-07-31T01:34:04;18.30;99.90
22321;DHT22;11328;53.928;18.522;2023-07-31T01:36:32;18.30;99.90
22321;DHT22;11328;53.928;18.522;2023-07-31T01:39:00;18.30;99.90
22321;DHT22;11328;53.928;18.522;2023-07-31T01:41:28;18.20;99.90
22321;DHT22;11328;53.928;18.522;2023-07-31T01:43:55;18.10;99.90
22321;DHT22;11328;53.928;18.522;2023-07-31T01:46:22;18.00;99.90
22321;DHT22;11328;53.928;18.522;2023-07-31T01:48:49;17.80;99.90
22321;DHT22;11328;53.928;18.522;2023-07-31T01:51:16;17.80;99.90
22321;DHT22;11328;53.928;18.522;2023-07-31T01:53:43;17.80;99.90
22321;DHT22;11328;53.928;18.522;2023-07-31T01:56:10;17.70;99.90
22321;DHT22;11328;53.928;18.522;2023-07-31T01:58:37;17.70;99.90
22321;DHT22;11328;53.928;18.522;2023-07-31T02:01:04;17.60;99.90
22321;DHT22;11328;53.928;18.522;2023-07-31T02:03:31;17.50;99.90
22321;DHT22;11328;53.928;18.522;2023-07-31T02:05:58;17.40;99.90
22321;DHT22;11328;53.928;18.522;2023-07-31T02:08:25;17.40;99.90
22321;DHT22;11328;53.928;18.522;2023-07-31T02:10:53;17.20;99.90
22321;DHT22;11328;53.928;18.522;2023-07-31T02:13:20;17.20;99.90
22321;DHT22;11328;53.928;18.522;2023-07-31T02:15:48;17.20;99.90
22321;DHT22;11328;53.928;18.522;2023-07-31T02:18:15;17.10;99.90
22321;DHT22;11328;53.928;18.522;2023-07-31T02:20:41;17.10;99.90
22321;DHT22;11328;53.928;18.522;2023-07-31T02:23:08;17.00;99.90
22321;DHT22;11328;53.928;18.522;2023-07-31T02:25:35;16.90;99.90
22321;DHT22;11328;53.928;18.522;2023-07-31T02:28:02;16.70;99.90
22321;DHT22;11328;53.928;18.522;2023-07-31T02:30:29;16.70;99.90
22321;DHT22;11328;53.928;18.522;2023-07-31T02:32:56;16.60;99.90
22321;DHT22;11328;53.928;18.522;2023-07-31T02:35:23;16.60;99.90
22321;DHT22;11328;53.928;18.522;2023-07-31T02:37:50;16.60;99.90
22321;DHT22;11328;53.928;18.522;2023-07-31T02:40:17;16.50;99.90
22321;DHT22;11328;53.928;18.522;2023-07-31T02:42:44;16.50;99.90
22321;DHT22;11328;53.928;18.522;2023-07-31T02:45:11;16.40;99.90
22321;DHT22;11328;53.928;18.522;2023-07-31T02:47:38;16.40;99.90
22321;DHT22;11328;53.928;18.522;2023-07-31T02:50:05;16.40;99.90
22321;DHT22;11328;53.928;18.522;2023-07-31T02:52:33;16.30;99.90
22321;DHT22;11328;53.928;18.522;2023-07-31T02:54:59;16.30;99.90
22321;DHT22;11328;53.928;18.522;2023-07-31T02:57:26;16.20;99.90
22321;DHT22;11328;53.928;18.522;2023-07-31T02:59:53;16.20;99.90
22321;DHT22;11328;53.928;18.522;2023-07-31T03:02:20;16.20;99.90
22321;DHT22;11328;53.928;18.522;2023-07-31T03:04:47;16.20;99.90
22321;DHT22;11328;53.928;18.522;2023-07-31T03:07:14;16.20;99.90
22321;DHT22;11328;53.928;18.522;2023-07-31T03:09:41;16.20;99.90
22321;DHT22;11328;53.928;18.522;2023-07-31T03:12:08;16.10;99.90
22321;DHT22;11328;53.928;18.522;2023-07-31T03:14:35;16.10;99.90
22321;DHT22;11328;53.928;18.522;2023-07-31T03:17:02;16.10;99.90
22321;DHT22;11328;53.928;18.522;2023-07-31T03:19:33;16.10;99.90
22321;DHT22;11328;53.928;18.522;2023-07-31T03:22:00;16.10;99.90
22321;DHT22;11328;53.928;18.522;2023-07-31T03:24:28;16.10;99.90
22321;DHT22;11328;53.928;18.522;2023-07-31T03:26:55;16.10;99.90
22321;DHT22;11328;53.928;18.522;2023-07-31T03:29:22;16.10;99.90
22321;DHT22;11328;53.928;18.522;2023-07-31T03:31:50;16.10;99.90
22321;DHT22;11328;53.928;18.522;2023-07-31T03:34:17;16.10;99.90
22321;DHT22;11328;53.928;18.522;2023-07-31T03:36:44;16.20;99.90
22321;DHT22;11328;53.928;18.522;2023-07-31T03:39:11;16.20;99.90
22321;DHT22;11328;53.928;18.522;2023-07-31T03:41:38;16.20;99.90
22321;DHT22;11328;53.928;18.522;2023-07-31T03:44:05;16.40;99.90
22321;DHT22;11328;53.928;18.522;2023-07-31T03:46:32;16.30;99.90
22321;DHT22;11328;53.928;18.522;2023-07-31T03:49:00;16.20;99.90
22321;DHT22;11328;53.928;18.522;2023-07-31T03:51:27;16.20;99.90
22321;DHT22;11328;53.928;18.522;2023-07-31T03:53:54;16.20;99.90
22321;DHT22;11328;53.928;18.522;2023-07-31T03:56:21;16.30;99.90
22321;DHT22;11328;53.928;18.522;2023-07-31T03:58:49;16.40;99.90
22321;DHT22;11328;53.928;18.522;2023-07-31T04:01:16;16.40;99.90
22321;DHT22;11328;53.928;18.522;2023-07-31T04:03:43;16.40;99.90
22321;DHT22;11328;53.928;18.522;2023-07-31T04:06:10;16.50;99.90
22321;DHT22;11328;53.928;18.522;2023-07-31T04:08:37;16.50;99.90
22321;DHT22;11328;53.928;18.522;2023-07-31T04:11:04;16.60;99.90
22321;DHT22;11328;53.928;18.522;2023-07-31T04:13:31;16.60;99.90
22321;DHT22;11328;53.928;18.522;2023-07-31T04:15:58;16.60;99.90
22321;DHT22;11328;53.928;18.522;2023-07-31T04:18:25;16.60;99.90
22321;DHT22;11328;53.928;18.522;2023-07-31T04:20:52;16.40;99.90
22321;DHT22;11328;53.928;18.522;2023-07-31T04:23:19;16.40;99.90
22321;DHT22;11328;53.928;18.522;2023-07-31T04:25:46;16.60;99.90
22321;DHT22;11328;53.928;18.522;2023-07-31T04:28:13;16.60;99.90
22321;DHT22;11328;53.928;18.522;2023-07-31T04:30:40;16.60;99.90
22321;DHT22;11328;53.928;18.522;2023-07-31T04:33:08;16.80;99.90
22321;DHT22;11328;53.928;18.522;2023-07-31T04:35:35;16.70;99.90
22321;DHT22;11328;53.928;18.522;2023-07-31T04:38:01;16.80;99.90
22321;DHT22;11328;53.928;18.522;2023-07-31T04:40:28;16.90;99.90
22321;DHT22;11328;53.928;18.522;2023-07-31T04:42:55;16.80;99.90
22321;DHT22;11328;53.928;18.522;2023-07-31T04:45:22;16.80;99.90
22321;DHT22;11328;53.928;18.522;2023-07-31T04:47:49;16.80;99.90
22321;DHT22;11328;53.928;18.522;2023-07-31T04:50:16;16.90;99.90
22321;DHT22;11328;53.928;18.522;2023-07-31T04:52:43;16.80;99.90
22321;DHT22;11328;53.928;18.522;2023-07-31T04:55:10;16.80;99.90
22321;DHT22;11328;53.928;18.522;2023-07-31T04:57:37;16.80;99.90
22321;DHT22;11328;53.928;18.522;2023-07-31T05:00:04;17.00;99.90
22321;DHT22;11328;53.928;18.522;2023-07-31T05:02:32;16.90;99.90
22321;DHT22;11328;53.928;18.522;2023-07-31T05:04:59;16.90;99.90
22321;DHT22;11328;53.928;18.522;2023-07-31T05:07:26;17.00;99.90
22321;DHT22;11328;53.928;18.522;2023-07-31T05:09:53;17.10;99.90
22321;DHT22;11328;53.928;18.522;2023-07-31T05:12:24;17.20;99.90
22321;DHT22;11328;53.928;18.522;2023-07-31T05:14:51;17.10;99.90
22321;DHT22;11328;53.928;18.522;2023-07-31T05:17:18;17.10;99.90
22321;DHT22;11328;53.928;18.522;2023-07-31T05:19:45;17.20;99.90
22321;DHT22;11328;53.928;18.522;2023-07-31T05:22:12;17.30;99.90
22321;DHT22;11328;53.928;18.522;2023-07-31T05:24:39;17.30;99.90
22321;DHT22;11328;53.928;18.522;2023-07-31T05:27:06;17.40;99.90
22321;DHT22;11328;53.928;18.522;2023-07-31T05:29:33;17.30;99.90
22321;DHT22;11328;53.928;18.522;2023-07-31T05:32:00;17.40;99.90
22321;DHT22;11328;53.928;18.522;2023-07-31T05:34:27;17.40;99.90
22321;DHT22;11328;53.928;18.522;2023-07-31T05:36:54;17.40;99.90
22321;DHT22;11328;53.928;18.522;2023-07-31T05:39:21;17.50;99.90
22321;DHT22;11328;53.928;18.522;2023-07-31T05:41:48;17.50;99.90
22321;DHT22;11328;53.928;18.522;2023-07-31T05:44:15;17.50;99.90
22321;DHT22;11328;53.928;18.522;2023-07-31T05:46:42;17.50;99.90
22321;DHT22;11328;53.928;18.522;2023-07-31T05:49:09;17.50;99.90
22321;DHT22;11328;53.928;18.522;2023-07-31T05:51:36;17.60;99.90
22321;DHT22;11328;53.928;18.522;2023-07-31T05:54:03;17.90;99.90
22321;DHT22;11328;53.928;18.522;2023-07-31T05:56:30;18.10;99.90
22321;DHT22;11328;53.928;18.522;2023-07-31T05:58:58;18.40;99.90
22321;DHT22;11328;53.928;18.522;2023-07-31T06:01:25;18.60;99.90
22321;DHT22;11328;53.928;18.522;2023-07-31T06:03:52;18.50;99.90
22321;DHT22;11328;53.928;18.522;2023-07-31T06:06:19;18.60;99.90
22321;DHT22;11328;53.928;18.522;2023-07-31T06:08:46;18.80;99.90
22321;DHT22;11328;53.928;18.522;2023-07-31T06:11:13;18.90;99.90
22321;DHT22;11328;53.928;18.522;2023-07-31T06:13:40;19.10;99.90
22321;DHT22;11328;53.928;18.522;2023-07-31T06:16:09;19.00;99.90
22321;DHT22;11328;53.928;18.522;2023-07-31T06:18:36;19.00;99.90
22321;DHT22;11328;53.928;18.522;2023-07-31T06:21:03;19.10;99.90
22321;DHT22;11328;53.928;18.522;2023-07-31T06:23:30;19.10;99.90
22321;DHT22;11328;53.928;18.522;2023-07-31T06:25:57;19.10;99.90
22321;DHT22;11328;53.928;18.522;2023-07-31T06:28:31;19.10;99.90
22321;DHT22;11328;53.928;18.522;2023-07-31T06:30:59;19.10;99.90
22321;DHT22;11328;53.928;18.522;2023-07-31T06:33:26;19.20;99.90
22321;DHT22;11328;53.928;18.522;2023-07-31T06:35:54;19.40;99.90
22321;DHT22;11328;53.928;18.522;2023-07-31T06:38:25;19.50;99.90
22321;DHT22;11328;53.928;18.522;2023-07-31T06:40:53;19.60;99.90
22321;DHT22;11328;53.928;18.522;2023-07-31T06:43:20;19.50;99.90
22321;DHT22;11328;53.928;18.522;2023-07-31T06:45:48;19.60;99.90
22321;DHT22;11328;53.928;18.522;2023-07-31T06:48:18;19.70;99.90
22321;DHT22;11328;53.928;18.522;2023-07-31T06:50:45;19.80;99.90
22321;DHT22;11328;53.928;18.522;2023-07-31T06:53:12;19.90;99.90
22321;DHT22;11328;53.928;18.522;2023-07-31T06:55:39;19.90;99.90
22321;DHT22;11328;53.928;18.522;2023-07-31T06:58:06;20.00;99.90
22321;DHT22;11328;53.928;18.522;2023-07-31T07:00:33;20.40;99.90
22321;DHT22;11328;53.928;18.522;2023-07-31T07:03:00;20.60;99.90
22321;DHT22;11328;53.928;18.522;2023-07-31T07:05:27;20.70;99.90
22321;DHT22;11328;53.928;18.522;2023-07-31T07:07:54;20.70;99.90
22321;DHT22;11328;53.928;18.522;2023-07-31T07:10:21;20.60;99.90
22321;DHT22;11328;53.928;18.522;2023-07-31T07:12:48;20.60;99.90
22321;DHT22;11328;53.928;18.522;2023-07-31T07:15:15;20.60;99.90
22321;DHT22;11328;53.928;18.522;2023-07-31T07:17:42;20.90;99.90
22321;DHT22;11328;53.928;18.522;2023-07-31T07:20:09;21.20;99.90
22321;DHT22;11328;53.928;18.522;2023-07-31T07:22:36;21.60;99.90
22321;DHT22;11328;53.928;18.522;2023-07-31T07:25:04;22.00;99.90
22321;DHT22;11328;53.928;18.522;2023-07-31T07:27:33;22.50;99.90
22321;DHT22;11328;53.928;18.522;2023-07-31T07:30:01;22.90;99.90
22321;DHT22;11328;53.928;18.522;2023-07-31T07:32:28;23.30;99.90
22321;DHT22;11328;53.928;18.522;2023-07-31T07:34:55;23.40;99.90
22321;DHT22;11328;53.928;18.522;2023-07-31T07:37:23;23.60;99.90
22321;DHT22;11328;53.928;18.522;2023-07-31T07:39:50;23.60;99.90
22321;DHT22;11328;53.928;18.522;2023-07-31T07:42:18;23.80;99.90
22321;DHT22;11328;53.928;18.522;2023-07-31T07:44:45;23.70;99.90
22321;DHT22;11328;53.928;18.522;2023-07-31T07:47:12;23.60;99.90
22321;DHT22;11328;53.928;18.522;2023-07-31T07:49:39;23.50;99.90
22321;DHT22;11328;53.928;18.522;2023-07-31T07:52:07;23.20;99.90
22321;DHT22;11328;53.928;18.522;2023-07-31T07:54:34;23.20;99.90
22321;DHT22;11328;53.928;18.522;2023-07-31T07:57:00;23.20;99.90
22321;DHT22;11328;53.928;18.522;2023-07-31T07:59:27;23.40;99.90
22321;DHT22;11328;53.928;18.522;2023-07-31T08:01:54;23.60;99.90
22321;DHT22;11328;53.928;18.522;2023-07-31T08:04:21;23.70;99.90
22321;DHT22;11328;53.928;18.522;2023-07-31T08:06:48;23.80;99.90
22321;DHT22;11328;53.928;18.522;2023-07-31T08:09:15;24.00;99.90
22321;DHT22;11328;53.928;18.522;2023-07-31T08:11:42;24.10;99.90
22321;DHT22;11328;53.928;18.522;2023-07-31T08:14:09;24.10;99.90
22321;DHT22;11328;53.928;18.522;2023-07-31T08:16:36;23.90;99.90
22321;DHT22;11328;53.928;18.522;2023-07-31T08:19:04;24.00;99.90
22321;DHT22;11328;53.928;18.522;2023-07-31T08:21:31;24.00;99.90
22321;DHT22;11328;53.928;18.522;2023-07-31T08:23:58;24.10;99.90
22321;DHT22;11328;53.928;18.522;2023-07-31T08:26:25;24.10;99.90
22321;DHT22;11328;53.928;18.522;2023-07-31T08:28:53;23.90;99.90
22321;DHT22;11328;53.928;18.522;2023-07-31T08:31:20;23.40;99.90
22321;DHT22;11328;53.928;18.522;2023-07-31T08:33:47;23.20;99.90
22321;DHT22;11328;53.928;18.522;2023-07-31T08:36:14;23.10;99.90
22321;DHT22;11328;53.928;18.522;2023-07-31T08:38:41;23.20;99.90
22321;DHT22;11328;53.928;18.522;2023-07-31T08:41:08;23.50;99.90
22321;DHT22;11328;53.928;18.522;2023-07-31T08:43:35;23.60;99.90
22321;DHT22;11328;53.928;18.522;2023-07-31T08:46:05;23.80;99.90
22321;DHT22;11328;53.928;18.522;2023-07-31T08:48:32;23.70;99.90
22321;DHT22;11328;53.928;18.522;2023-07-31T08:51:00;23.30;99.90
22321;DHT22;11328;53.928;18.522;2023-07-31T08:53:27;23.30;99.90
22321;DHT22;11328;53.928;18.522;2023-07-31T08:55:54;23.20;99.90
22321;DHT22;11328;53.928;18.522;2023-07-31T08:58:25;23.20;99.90
22321;DHT22;11328;53.928;18.522;2023-07-31T09:00:57;23.10;99.90
22321;DHT22;11328;53.928;18.522;2023-07-31T09:03:28;23.10;99.90
22321;DHT22;11328;53.928;18.522;2023-07-31T09:05:58;23.10;99.90
22321;DHT22;11328;53.928;18.522;2023-07-31T09:08:30;22.70;99.90
22321;DHT22;11328;53.928;18.522;2023-07-31T09:11:02;22.70;99.90
22321;DHT22;11328;53.928;18.522;2023-07-31T09:13:32;22.70;99.90
22321;DHT22;11328;53.928;18.522;2023-07-31T09:16:00;22.80;99.90
22321;DHT22;11328;53.928;18.522;2023-07-31T09:18:27;22.90;99.90
22321;DHT22;11328;53.928;18.522;2023-07-31T09:21:06;22.90;99.90
22321;DHT22;11328;53.928;18.522;2023-07-31T09:23:41;22.60;99.90
22321;DHT22;11328;53.928;18.522;2023-07-31T09:26:13;22.50;99.90
22321;DHT22;11328;53.928;18.522;2023-07-31T09:28:57;22.20;99.90
22321;DHT22;11328;53.928;18.522;2023-07-31T09:31:42;22.20;99.90
22321;DHT22;11328;53.928;18.522;2023-07-31T09:34:10;22.20;99.90
22321;DHT22;11328;53.928;18.522;2023-07-31T09:39:14;22.70;99.90
22321;DHT22;11328;53.928;18.522;2023-07-31T09:41:44;23.00;99.90
22321;DHT22;11328;53.928;18.522;2023-07-31T09:44:20;23.40;99.90
22321;DHT22;11328;53.928;18.522;2023-07-31T09:46:47;23.80;99.90
22321;DHT22;11328;53.928;18.522;2023-07-31T09:49:15;24.20;99.90
22321;DHT22;11328;53.928;18.522;2023-07-31T09:51:42;24.20;99.90
22321;DHT22;11328;53.928;18.522;2023-07-31T09:56:48;23.80;99.90
22321;DHT22;11328;53.928;18.522;2023-07-31T09:59:19;23.80;99.90
22321;DHT22;11328;53.928;18.522;2023-07-31T10:01:50;23.80;99.90
22321;DHT22;11328;53.928;18.522;2023-07-31T10:04:20;23.80;99.90
22321;DHT22;11328;53.928;18.522;2023-07-31T10:06:57;23.70;99.90
22321;DHT22;11328;53.928;18.522;2023-07-31T10:09:29;23.60;99.90
22321;DHT22;11328;53.928;18.522;2023-07-31T10:12:00;23.40;99.90
22321;DHT22;11328;53.928;18.522;2023-07-31T10:14:35;23.40;99.90
22321;DHT22;11328;53.928;18.522;2023-07-31T10:17:05;23.50;99.90
22321;DHT22;11328;53.928;18.522;2023-07-31T10:19:34;23.30;99.90
22321;DHT22;11328;53.928;18.522;2023-07-31T10:22:03;23.30;99.90
22321;DHT22;11328;53.928;18.522;2023-07-31T10:24:32;23.30;99.90
22321;DHT22;11328;53.928;18.522;2023-07-31T10:27:01;23.00;99.90
22321;DHT22;11328;53.928;18.522;2023-07-31T10:29:29;22.80;99.90
22321;DHT22;11328;53.928;18.522;2023-07-31T10:31:58;22.70;99.90
22321;DHT22;11328;53.928;18.522;2023-07-31T10:34:26;22.90;99.90
22321;DHT22;11328;53.928;18.522;2023-07-31T10:37:22;23.10;99.90
22321;DHT22;11328;53.928;18.522;2023-07-31T10:39:57;23.50;99.90
22321;DHT22;11328;53.928;18.522;2023-07-31T10:42:31;23.80;99.90
22321;DHT22;11328;53.928;18.522;2023-07-31T10:45:05;23.90;99.90
22321;DHT22;11328;53.928;18.522;2023-07-31T10:47:43;23.80;99.90
22321;DHT22;11328;53.928;18.522;2023-07-31T10:50:22;23.90;99.90
22321;DHT22;11328;53.928;18.522;2023-07-31T10:52:55;23.90;99.90
22321;DHT22;11328;53.928;18.522;2023-07-31T10:55:33;23.80;99.90
22321;DHT22;11328;53.928;18.522;2023-07-31T10:58:13;23.80;99.90
22321;DHT22;11328;53.928;18.522;2023-07-31T11:00:42;23.80;99.90
22321;DHT22;11328;53.928;18.522;2023-07-31T11:03:12;23.60;99.90
22321;DHT22;11328;53.928;18.522;2023-07-31T11:13:33;23.40;99.90
22321;DHT22;11328;53.928;18.522;2023-07-31T11:16:07;23.40;99.90
22321;DHT22;11328;53.928;18.522;2023-07-31T11:18:35;23.30;99.90
22321;DHT22;11328;53.928;18.522;2023-07-31T11:21:04;23.30;99.90
22321;DHT22;11328;53.928;18.522;2023-07-31T11:23:31;23.20;99.90
22321;DHT22;11328;53.928;18.522;2023-07-31T11:25:59;23.00;99.90
22321;DHT22;11328;53.928;18.522;2023-07-31T11:28:32;23.20;99.90
22321;DHT22;11328;53.928;18.522;2023-07-31T11:31:01;23.30;99.90
22321;DHT22;11328;53.928;18.522;2023-07-31T11:33:29;23.20;99.90
22321;DHT22;11328;53.928;18.522;2023-07-31T11:35:56;23.20;99.90
22321;DHT22;11328;53.928;18.522;2023-07-31T11:38:33;23.10;99.90
22321;DHT22;11328;53.928;18.522;2023-07-31T11:41:02;23.00;99.90
22321;DHT22;11328;53.928;18.522;2023-07-31T11:43:33;22.70;99.90
22321;DHT22;11328;53.928;18.522;2023-07-31T11:46:02;22.40;99.90
22321;DHT22;11328;53.928;18.522;2023-07-31T11:48:32;22.40;99.90
22321;DHT22;11328;53.928;18.522;2023-07-31T11:51:08;22.50;99.90
22321;DHT22;11328;53.928;18.522;2023-07-31T11:53:43;22.30;99.90
22321;DHT22;11328;53.928;18.522;2023-07-31T11:56:15;22.50;99.90
22321;DHT22;11328;53.928;18.522;2023-07-31T11:58:45;22.50;99.90
22321;DHT22;11328;53.928;18.522;2023-07-31T12:01:16;22.50;99.90
22321;DHT22;11328;53.928;18.522;2023-07-31T12:03:46;22.50;99.90
22321;DHT22;11328;53.928;18.522;2023-07-31T12:06:14;22.50;99.90
22321;DHT22;11328;53.928;18.522;2023-07-31T12:08:41;22.70;99.90
22321;DHT22;11328;53.928;18.522;2023-07-31T12:11:09;23.00;99.90
22321;DHT22;11328;53.928;18.522;2023-07-31T12:13:36;23.20;99.90
22321;DHT22;11328;53.928;18.522;2023-07-31T12:16:04;23.40;99.90
22321;DHT22;11328;53.928;18.522;2023-07-31T12:18:36;23.40;99.90
22321;DHT22;11328;53.928;18.522;2023-07-31T12:21:07;23.50;99.90
22321;DHT22;11328;53.928;18.522;2023-07-31T12:23:36;23.50;99.90
22321;DHT22;11328;53.928;18.522;2023-07-31T12:26:15;23.60;99.90
22321;DHT22;11328;53.928;18.522;2023-07-31T12:31:14;23.50;99.90
22321;DHT22;11328;53.928;18.522;2023-07-31T12:33:47;23.50;99.90
22321;DHT22;11328;53.928;18.522;2023-07-31T12:36:17;23.50;99.90
22321;DHT22;11328;53.928;18.522;2023-07-31T12:38:55;23.50;99.90
22321;DHT22;11328;53.928;18.522;2023-07-31T12:41:24;23.40;99.90
22321;DHT22;11328;53.928;18.522;2023-07-31T12:43:51;23.50;99.90
22321;DHT22;11328;53.928;18.522;2023-07-31T12:46:18;23.60;99.90
22321;DHT22;11328;53.928;18.522;2023-07-31T12:48:45;23.60;99.90
22321;DHT22;11328;53.928;18.522;2023-07-31T12:51:12;23.60;99.90
22321;DHT22;11328;53.928;18.522;2023-07-31T12:53:39;23.60;99.90
22321;DHT22;11328;53.928;18.522;2023-07-31T12:56:06;23.40;99.90
22321;DHT22;11328;53.928;18.522;2023-07-31T12:58:33;23.40;99.90
22321;DHT22;11328;53.928;18.522;2023-07-31T13:01:00;23.40;99.90
22321;DHT22;11328;53.928;18.522;2023-07-31T13:03:28;23.30;99.90
22321;DHT22;11328;53.928;18.522;2023-07-31T13:05:55;23.30;99.90
22321;DHT22;11328;53.928;18.522;2023-07-31T13:08:22;23.20;99.90
22321;DHT22;11328;53.928;18.522;2023-07-31T13:10:49;22.90;99.90
22321;DHT22;11328;53.928;18.522;2023-07-31T13:13:16;22.70;99.90
22321;DHT22;11328;53.928;18.522;2023-07-31T13:15:44;22.60;99.90
22321;DHT22;11328;53.928;18.522;2023-07-31T13:18:11;22.40;99.90
22321;DHT22;11328;53.928;18.522;2023-07-31T13:20:38;22.10;99.90
22321;DHT22;11328;53.928;18.522;2023-07-31T13:23:05;21.80;99.90
22321;DHT22;11328;53.928;18.522;2023-07-31T13:25:32;21.60;99.90
22321;DHT22;11328;53.928;18.522;2023-07-31T13:27:59;21.30;99.90
22321;DHT22;11328;53.928;18.522;2023-07-31T13:30:30;21.10;99.90
22321;DHT22;11328;53.928;18.522;2023-07-31T13:32:57;21.00;99.90
22321;DHT22;11328;53.928;18.522;2023-07-31T13:35:24;21.00;99.90
22321;DHT22;11328;53.928;18.522;2023-07-31T13:37:51;20.90;99.90
22321;DHT22;11328;53.928;18.522;2023-07-31T13:40:18;20.90;99.90
22321;DHT22;11328;53.928;18.522;2023-07-31T13:42:45;20.80;99.90
22321;DHT22;11328;53.928;18.522;2023-07-31T13:45:14;20.70;99.90
22321;DHT22;11328;53.928;18.522;2023-07-31T13:47:41;20.80;99.90
22321;DHT22;11328;53.928;18.522;2023-07-31T13:50:08;20.80;99.90
22321;DHT22;11328;53.928;18.522;2023-07-31T13:52:36;20.80;99.90
22321;DHT22;11328;53.928;18.522;2023-07-31T13:55:03;20.80;99.90
22321;DHT22;11328;53.928;18.522;2023-07-31T13:57:30;20.50;99.90
22321;DHT22;11328;53.928;18.522;2023-07-31T13:59:57;20.40;99.90
22321;DHT22;11328;53.928;18.522;2023-07-31T14:02:24;20.30;99.90
22321;DHT22;11328;53.928;18.522;2023-07-31T14:04:51;20.40;99.90
22321;DHT22;11328;53.928;18.522;2023-07-31T14:07:18;20.50;99.90
22321;DHT22;11328;53.928;18.522;2023-07-31T14:09:45;20.50;99.90
22321;DHT22;11328;53.928;18.522;2023-07-31T14:12:12;20.60;99.90
22321;DHT22;11328;53.928;18.522;2023-07-31T14:14:50;20.60;99.90
22321;DHT22;11328;53.928;18.522;2023-07-31T14:17:17;20.80;99.90
22321;DHT22;11328;53.928;18.522;2023-07-31T14:19:44;20.90;99.90
22321;DHT22;11328;53.928;18.522;2023-07-31T14:22:12;20.90;99.90
22321;DHT22;11328;53.928;18.522;2023-07-31T14:24:38;21.00;99.90
22321;DHT22;11328;53.928;18.522;2023-07-31T14:27:05;21.10;99.90
22321;DHT22;11328;53.928;18.522;2023-07-31T14:29:33;21.10;99.90
22321;DHT22;11328;53.928;18.522;2023-07-31T14:32:00;21.20;99.90
22321;DHT22;11328;53.928;18.522;2023-07-31T14:34:27;21.20;99.90
22321;DHT22;11328;53.928;18.522;2023-07-31T14:36:54;21.10;99.90
22321;DHT22;11328;53.928;18.522;2023-07-31T14:39:21;21.00;99.90
22321;DHT22;11328;53.928;18.522;2023-07-31T14:41:48;21.10;99.90
22321;DHT22;11328;53.928;18.522;2023-07-31T14:44:15;21.20;99.90
22321;DHT22;11328;53.928;18.522;2023-07-31T14:46:42;21.10;99.90
22321;DHT22;11328;53.928;18.522;2023-07-31T14:49:09;21.20;99.90
22321;DHT22;11328;53.928;18.522;2023-07-31T14:51:37;21.30;99.90
22321;DHT22;11328;53.928;18.522;2023-07-31T14:54:04;21.40;99.90
22321;DHT22;11328;53.928;18.522;2023-07-31T14:56:31;21.30;99.90
22321;DHT22;11328;53.928;18.522;2023-07-31T14:58:57;21.40;99.90
22321;DHT22;11328;53.928;18.522;2023-07-31T15:01:24;21.40;99.90
22321;DHT22;11328;53.928;18.522;2023-07-31T15:03:52;21.40;99.90
22321;DHT22;11328;53.928;18.522;2023-07-31T15:06:19;21.50;99.90
22321;DHT22;11328;53.928;18.522;2023-07-31T15:08:46;21.60;99.90
22321;DHT22;11328;53.928;18.522;2023-07-31T15:11:13;21.80;99.90
22321;DHT22;11328;53.928;18.522;2023-07-31T15:13:42;21.80;99.90
22321;DHT22;11328;53.928;18.522;2023-07-31T15:16:09;21.90;99.90
22321;DHT22;11328;53.928;18.522;2023-07-31T15:18:37;22.00;99.90
22321;DHT22;11328;53.928;18.522;2023-07-31T15:21:04;22.00;99.90
22321;DHT22;11328;53.928;18.522;2023-07-31T15:23:33;21.70;99.90
22321;DHT22;11328;53.928;18.522;2023-07-31T15:26:00;21.60;99.90
22321;DHT22;11328;53.928;18.522;2023-07-31T15:28:28;21.30;99.90
22321;DHT22;11328;53.928;18.522;2023-07-31T15:30:55;21.30;99.90
22321;DHT22;11328;53.928;18.522;2023-07-31T15:33:22;21.40;99.90
22321;DHT22;11328;53.928;18.522;2023-07-31T15:35:49;21.60;99.90
22321;DHT22;11328;53.928;18.522;2023-07-31T15:38:16;21.70;99.90
22321;DHT22;11328;53.928;18.522;2023-07-31T15:40:43;21.70;99.90
22321;DHT22;11328;53.928;18.522;2023-07-31T15:43:09;21.80;99.90